SBOSBO PLS / MBPV
Speedbird OnlineSpeedbird Online PLS / MBPV

Providenciales Airport
03:21 27.7°C

Location Providenciales, Turks and Caicos Islands
Latitude: 21.77359962463379
Longitude: -72.26589965820312
Web Wikipedia
Altitude 5 Meter / 15 Feet
Distance 6,925 KM / 4,303 Miles
from London.
Time Zone UTC -4 hours (America/Grand_Turk)
Codes IATA: PLS
ICAO: MBPV
Currency £1 equals USD 1.13
Runways
RunwayLength (m)Surface
102804Asphalt
282804Asphalt
Radio
TypeDescriptionFrequency
APPPROVO APP126
GNDGND121.9
TWRTWR119.9
Live ATC
METAR MBPV 060000Z 08003KT 9999 SCT015 28/24 Q1013
TAF MBPV 052130Z 0600/0624 04007KT 9999 VCSH FEW018CB SCT022 BECMG 0606/0608 07010KT PROB30 TEMPO 0608/0614 9000 SHRA FEW015CB BKN018
Weather As Of 06 Oct 2022 03:21
Description Broken clouds
Wind 21 km/h from East (80°)
Cloud Cover 74%
Precipitation Rain: none, Snow: none
Sunrise 06:41
Sunset 18:32
Rotations During the last 90 days there were
18 flights from ANU
23 flights to ANU


© 2017-2022 Speedbird Online